createdAt,value
2023-03-22T00:01:17.786Z,95377.97
2023-03-22T00:03:45.689Z,95378.16
2023-03-22T00:06:14.088Z,95376.34
2023-03-22T00:08:41.833Z,95380.03
2023-03-22T00:11:09.686Z,95379.97
2023-03-22T00:13:37.939Z,95376.88
2023-03-22T00:16:07.962Z,95371.69
2023-03-22T00:18:35.865Z,95381.22
2023-03-22T00:21:03.970Z,95373.09
2023-03-22T00:23:31.939Z,95370.59
2023-03-22T00:25:59.537Z,95374.50
2023-03-22T00:28:27.291Z,95378.53
2023-03-22T00:30:56.812Z,95374.56
2023-03-22T00:33:30.078Z,95384.75
2023-03-22T00:36:00.721Z,95382.22
2023-03-22T00:38:44.995Z,95394.72
2023-03-22T00:41:14.602Z,95390.81
2023-03-22T00:43:42.459Z,95384.91
2023-03-22T00:46:10.769Z,95393.84
2023-03-22T00:48:40.670Z,95392.56
2023-03-22T00:51:09.789Z,95388.75
2023-03-22T00:53:42.330Z,95383.91
2023-03-22T00:56:13.641Z,95386.63
2023-03-22T00:58:46.456Z,95390.28
2023-03-22T01:01:15.164Z,95382.28
2023-03-22T01:03:49.960Z,95370.91
2023-03-22T01:06:17.865Z,95358.63
2023-03-22T01:08:46.608Z,95360.28
2023-03-22T01:11:18.152Z,95356.88
2023-03-22T01:13:48.085Z,95359.19
2023-03-22T01:16:15.775Z,95352.19
2023-03-22T01:18:45.087Z,95350.63
2023-03-22T01:21:13.405Z,95348.22
2023-03-22T01:23:41.608Z,95357.78
2023-03-22T01:26:09.240Z,95352.88
2023-03-22T01:28:37.614Z,95360.41
2023-03-22T01:31:05.675Z,95357.75
2023-03-22T01:33:33.457Z,95353.41
2023-03-22T01:36:02.450Z,95366.13
2023-03-22T01:38:31.007Z,95356.25
2023-03-22T01:41:00.893Z,95364.03
2023-03-22T01:43:32.173Z,95362.66
2023-03-22T01:46:00.516Z,95361.00
2023-03-22T01:48:34.481Z,95354.47
2023-03-22T01:51:09.220Z,95348.78
2023-03-22T01:54:01.540Z,95347.88
2023-03-22T01:56:32.518Z,95344.97
2023-03-22T01:59:01.701Z,95346.84
2023-03-22T02:01:40.815Z,95345.59
2023-03-22T02:04:12.244Z,95342.03
2023-03-22T02:06:42.328Z,95345.81
2023-03-22T02:09:18.322Z,95346.91
2023-03-22T02:11:53.399Z,95342.31
2023-03-22T02:14:39.738Z,95346.50
2023-03-22T02:17:35.977Z,95348.59
2023-03-22T02:20:31.386Z,95343.31
2023-03-22T02:23:34.133Z,95347.16
2023-03-22T02:26:39.186Z,95349.78
2023-03-22T02:29:14.089Z,95340.50
2023-03-22T02:32:11.633Z,95337.69
2023-03-22T02:35:06.330Z,95333.38
2023-03-22T02:38:23.146Z,95331.91
2023-03-22T02:40:56.193Z,95328.84
2023-03-22T02:43:38.280Z,95327.19
2023-03-22T02:46:11.039Z,95333.63
2023-03-22T02:48:44.080Z,95325.72
2023-03-22T02:51:18.519Z,95337.88
2023-03-22T02:53:51.991Z,95331.38
2023-03-22T02:56:25.395Z,95330.38
2023-03-22T02:58:56.457Z,95327.09
2023-03-22T03:01:28.503Z,95321.84
2023-03-22T03:04:01.057Z,95322.56
2023-03-22T03:06:33.651Z,95330.06
2023-03-22T03:09:04.988Z,95324.66
2023-03-22T03:11:34.404Z,95325.00
2023-03-22T03:14:02.168Z,95326.81
2023-03-22T03:16:35.036Z,95329.81
2023-03-22T03:19:11.772Z,95339.69
2023-03-22T03:21:48.150Z,95330.81
2023-03-22T03:24:24.230Z,95337.69
2023-03-22T03:27:01.592Z,95337.41
2023-03-22T03:29:38.841Z,95333.66
2023-03-22T03:32:11.099Z,95336.16
2023-03-22T03:34:49.823Z,95342.44
2023-03-22T03:37:21.896Z,95338.88
2023-03-22T03:39:55.593Z,95335.94
2023-03-22T03:42:28.305Z,95339.03
2023-03-22T03:44:57.270Z,95335.28
2023-03-22T03:47:26.431Z,95343.44
2023-03-22T03:49:54.196Z,95338.63
2023-03-22T03:52:24.605Z,95336.22
2023-03-22T03:54:52.696Z,95346.09
2023-03-22T03:57:28.628Z,95346.78
2023-03-22T03:59:56.400Z,95346.78
2023-03-22T04:02:41.477Z,95341.88
2023-03-22T04:05:17.282Z,95344.88
2023-03-22T04:07:45.121Z,95345.88
2023-03-22T04:10:13.386Z,95342.09
2023-03-22T04:12:42.891Z,95338.19
2023-03-22T04:15:17.131Z,95336.84
2023-03-22T04:17:49.469Z,95338.03
2023-03-22T04:20:18.759Z,95335.41
2023-03-22T04:22:48.410Z,95328.00
2023-03-22T04:25:18.187Z,95327.97
2023-03-22T04:27:57.337Z,95331.03
2023-03-22T04:30:27.586Z,95321.84
2023-03-22T04:33:15.221Z,95326.75
2023-03-22T04:36:02.492Z,95328.88
2023-03-22T04:38:37.315Z,95328.72
2023-03-22T04:41:05.554Z,95333.28
2023-03-22T04:43:39.746Z,95323.72
2023-03-22T04:46:12.595Z,95331.59
2023-03-22T04:48:47.311Z,95329.97
2023-03-22T04:51:15.426Z,95324.41
2023-03-22T04:54:00.347Z,95330.16
2023-03-22T04:56:28.089Z,95323.94
2023-03-22T04:58:57.253Z,95333.97
2023-03-22T05:01:25.100Z,95339.88
2023-03-22T05:04:02.118Z,95335.63
2023-03-22T05:06:32.628Z,95340.09
2023-03-22T05:09:08.078Z,95337.19
2023-03-22T05:11:36.307Z,95341.31
2023-03-22T05:14:23.961Z,95332.81
2023-03-22T05:16:52.078Z,95341.84
2023-03-22T05:19:22.315Z,95338.72
2023-03-22T05:21:58.683Z,95348.81
2023-03-22T05:24:39.366Z,95345.25
2023-03-22T05:27:11.024Z,95342.28
2023-03-22T05:29:45.022Z,95339.03
2023-03-22T05:32:25.483Z,95335.75
2023-03-22T05:34:54.784Z,95332.78
2023-03-22T05:37:30.070Z,95339.38
2023-03-22T05:39:59.868Z,95332.50
2023-03-22T05:42:36.427Z,95337.44
2023-03-22T05:45:15.270Z,95336.13
2023-03-22T05:47:45.797Z,95342.00
2023-03-22T05:50:20.290Z,95341.69
2023-03-22T05:52:50.451Z,95344.78
2023-03-22T05:55:24.210Z,95345.78
2023-03-22T05:57:56.710Z,95350.19
2023-03-22T06:00:31.857Z,95349.56
2023-03-22T06:03:18.500Z,95353.47
2023-03-22T06:05:54.656Z,95356.44
2023-03-22T06:08:30.804Z,95350.50
2023-03-22T06:10:59.490Z,95345.28
2023-03-22T06:13:27.444Z,95346.59
2023-03-22T06:15:57.522Z,95348.06
2023-03-22T06:18:26.666Z,95349.88
2023-03-22T06:21:02.741Z,95343.97
2023-03-22T06:23:30.565Z,95344.59
2023-03-22T06:25:58.183Z,95344.25
2023-03-22T06:28:29.873Z,95345.84
2023-03-22T06:31:07.358Z,95349.53
2023-03-22T06:33:55.899Z,95355.22
2023-03-22T06:36:32.386Z,95355.53
2023-03-22T06:39:13.219Z,95356.78
2023-03-22T06:41:44.314Z,95357.72
2023-03-22T06:44:12.428Z,95358.03
2023-03-22T06:47:01.684Z,95354.63
2023-03-22T06:49:46.881Z,95352.84
2023-03-22T06:52:20.972Z,95357.31
2023-03-22T06:54:48.594Z,95360.47
2023-03-22T06:57:16.479Z,95355.09
2023-03-22T06:59:44.173Z,95356.59
2023-03-22T07:02:14.033Z,95351.44
2023-03-22T07:04:48.401Z,95348.44
2023-03-22T07:07:16.380Z,95360.25
2023-03-22T07:09:44.028Z,95356.69
2023-03-22T07:12:13.380Z,95354.81
2023-03-22T07:14:41.337Z,95354.00
2023-03-22T07:17:23.311Z,95344.84
2023-03-22T07:19:51.073Z,95342.78
2023-03-22T07:22:22.138Z,95337.91
2023-03-22T07:24:57.621Z,95346.53
2023-03-22T07:27:28.463Z,95335.84
2023-03-22T07:29:56.729Z,95334.47
2023-03-22T07:32:25.990Z,95338.88
2023-03-22T07:35:04.532Z,95340.38
2023-03-22T07:37:32.290Z,95344.09
2023-03-22T07:39:59.932Z,95348.06
2023-03-22T07:42:31.326Z,95346.47
2023-03-22T07:45:28.272Z,95350.16
2023-03-22T07:48:16.594Z,95347.91
2023-03-22T07:50:58.566Z,95351.38
2023-03-22T07:53:27.789Z,95343.66
2023-03-22T07:55:55.596Z,95343.66
2023-03-22T07:58:23.350Z,95341.41
2023-03-22T08:00:51.214Z,95345.84
2023-03-22T08:03:49.606Z,95344.81
2023-03-22T08:06:47.410Z,95335.81
2023-03-22T08:09:15.170Z,95335.00
2023-03-22T08:11:42.830Z,95330.66
2023-03-22T08:14:11.036Z,95330.53
2023-03-22T08:16:41.538Z,95330.09
2023-03-22T08:19:10.788Z,95327.25
2023-03-22T08:21:39.329Z,95328.41
2023-03-22T08:24:14.160Z,95335.41
2023-03-22T08:26:50.635Z,95322.03
2023-03-22T08:29:28.870Z,95320.16
2023-03-22T08:32:02.012Z,95329.69
2023-03-22T08:34:31.634Z,95321.34
2023-03-22T08:36:59.233Z,95320.81
2023-03-22T08:39:27.244Z,95321.72
2023-03-22T08:42:07.070Z,95321.81
2023-03-22T08:44:36.897Z,95316.72
2023-03-22T08:47:06.580Z,95323.00
2023-03-22T08:49:36.454Z,95328.38
2023-03-22T08:52:11.938Z,95328.06
2023-03-22T08:55:03.163Z,95327.34
2023-03-22T08:57:50.486Z,95315.47
2023-03-22T09:00:42.252Z,95312.47
2023-03-22T09:03:19.027Z,95309.09
2023-03-22T09:05:48.231Z,95309.47
2023-03-22T09:08:19.470Z,95296.59
2023-03-22T09:10:52.200Z,95316.13
2023-03-22T09:13:22.680Z,95305.22
2023-03-22T09:15:55.658Z,95306.16
2023-03-22T09:18:26.962Z,95297.63
2023-03-22T09:20:59.060Z,95283.53
2023-03-22T09:23:34.189Z,95289.84
2023-03-22T09:26:03.699Z,95290.41
2023-03-22T09:28:32.918Z,95295.59
2023-03-22T09:31:07.304Z,95282.91
2023-03-22T09:33:36.767Z,95272.56
2023-03-22T09:36:07.038Z,95270.28
2023-03-22T09:38:36.347Z,95275.53
2023-03-22T09:41:08.031Z,95274.97
2023-03-22T09:43:40.952Z,95273.31
2023-03-22T09:46:14.996Z,95269.41
2023-03-22T09:48:44.165Z,95281.53
2023-03-22T09:51:28.763Z,95273.00
2023-03-22T09:53:56.490Z,95274.41
2023-03-22T09:56:26.735Z,95258.63
2023-03-22T09:59:00.268Z,95259.22
2023-03-22T10:01:37.259Z,95271.59
2023-03-22T10:04:26.240Z,95266.97
2023-03-22T10:07:07.833Z,95260.13
2023-03-22T10:09:46.080Z,95260.22
2023-03-22T10:12:21.509Z,95265.41
2023-03-22T10:14:52.401Z,95263.22
2023-03-22T10:17:26.362Z,95254.59
2023-03-22T10:19:58.048Z,95254.25
2023-03-22T10:22:31.855Z,95261.28
2023-03-22T10:25:01.884Z,95259.78
2023-03-22T10:27:30.983Z,95256.94
2023-03-22T10:30:03.994Z,95257.00
2023-03-22T10:32:54.685Z,95260.97
2023-03-22T10:35:24.422Z,95263.47
2023-03-22T10:37:55.652Z,95253.50
2023-03-22T10:40:27.187Z,95253.72
2023-03-22T10:42:57.829Z,95252.63
2023-03-22T10:45:27.277Z,95250.81
2023-03-22T10:48:00.810Z,95255.91
2023-03-22T10:50:33.042Z,95247.19
2023-03-22T10:53:05.541Z,95242.84
2023-03-22T10:55:33.599Z,95243.16
2023-03-22T10:58:13.281Z,95244.25
2023-03-22T11:00:47.197Z,95236.72
2023-03-22T11:03:28.417Z,95240.63
2023-03-22T11:06:01.501Z,95231.84
2023-03-22T11:08:30.536Z,95234.53
2023-03-22T11:11:00.278Z,95223.03
2023-03-22T11:13:28.783Z,95220.44
2023-03-22T11:16:02.171Z,95209.66
2023-03-22T11:18:32.634Z,95211.41
2023-03-22T11:21:05.386Z,95216.41
2023-03-22T11:23:38.555Z,95203.41
2023-03-22T11:26:10.428Z,95202.44
2023-03-22T11:28:42.950Z,95198.78
2023-03-22T11:31:12.532Z,95202.88
2023-03-22T11:33:54.488Z,95192.75
2023-03-22T11:36:23.021Z,95197.81
2023-03-22T11:38:58.493Z,95195.06
2023-03-22T11:41:28.274Z,95180.38
2023-03-22T11:43:59.348Z,95179.63
2023-03-22T11:46:27.075Z,95184.09
2023-03-22T11:49:01.113Z,95180.31
2023-03-22T11:51:33.501Z,95169.63
2023-03-22T11:54:07.828Z,95168.75
2023-03-22T11:56:36.056Z,95163.06
2023-03-22T11:59:07.811Z,95168.19
2023-03-22T12:01:39.924Z,95148.03
2023-03-22T12:04:12.094Z,95158.44
2023-03-22T12:06:42.080Z,95142.75
2023-03-22T12:09:23.209Z,95146.63
2023-03-22T12:11:54.103Z,95143.94
2023-03-22T12:14:25.834Z,95138.69
2023-03-22T12:16:58.415Z,95137.53
2023-03-22T12:19:42.833Z,95136.00
2023-03-22T12:22:13.821Z,95136.31
2023-03-22T12:24:43.182Z,95135.22
2023-03-22T12:27:18.171Z,95132.44
2023-03-22T12:29:52.506Z,95130.56
2023-03-22T12:32:26.241Z,95128.19
2023-03-22T12:35:01.378Z,95134.97
2023-03-22T12:37:40.298Z,95127.22
2023-03-22T12:40:21.650Z,95129.81
2023-03-22T12:43:00.379Z,95125.56
2023-03-22T12:45:32.751Z,95111.81
2023-03-22T12:48:07.086Z,95130.28
2023-03-22T12:50:38.657Z,95131.53
2023-03-22T12:53:06.953Z,95125.09
2023-03-22T12:55:39.833Z,95118.94
2023-03-22T12:58:08.952Z,95113.81
2023-03-22T13:00:41.655Z,95106.31
2023-03-22T13:03:24.196Z,95110.31
2023-03-22T13:06:01.837Z,95108.72
2023-03-22T13:09:13.098Z,95103.00
2023-03-22T13:11:41.087Z,95102.47
2023-03-22T13:14:08.915Z,95098.81
2023-03-22T13:16:51.959Z,95085.63
2023-03-22T13:19:30.352Z,95093.41
2023-03-22T13:22:20.976Z,95094.25
2023-03-22T13:25:17.081Z,95078.63
2023-03-22T13:27:53.820Z,95083.09
2023-03-22T13:30:26.967Z,95081.22
2023-03-22T13:32:58.210Z,95071.78
2023-03-22T13:35:28.679Z,95073.16
2023-03-22T13:38:02.866Z,95073.78
2023-03-22T13:40:37.718Z,95070.09
2023-03-22T13:43:14.392Z,95072.34
2023-03-22T13:46:03.474Z,95063.66
2023-03-22T13:48:41.044Z,95058.91
2023-03-22T13:51:13.133Z,95058.22
2023-03-22T13:53:45.720Z,95061.16
2023-03-22T13:56:15.480Z,95065.25
2023-03-22T13:58:53.895Z,95063.03
2023-03-22T14:01:29.596Z,95061.13
2023-03-22T14:04:01.316Z,95059.38
2023-03-22T14:06:33.650Z,95047.75
2023-03-22T14:09:06.104Z,95047.34
2023-03-22T14:11:44.974Z,95045.91
2023-03-22T14:14:17.005Z,95048.94
2023-03-22T14:16:48.099Z,95057.69
2023-03-22T14:19:21.169Z,95059.84
